createdAt,value
2019-06-10T00:00:42.120Z,2.40
2019-06-10T00:02:21.270Z,2.50
2019-06-10T00:03:57.965Z,2.43
2019-06-10T00:05:35.459Z,2.10
2019-06-10T00:08:56.032Z,2.50
2019-06-10T00:10:33.523Z,2.50
2019-06-10T00:12:12.552Z,2.37
2019-06-10T00:13:50.739Z,2.97
2019-06-10T00:15:27.965Z,3.17
2019-06-10T00:17:06.721Z,2.30
2019-06-10T00:18:45.747Z,2.23
2019-06-10T00:20:22.619Z,2.40
2019-06-10T00:21:59.915Z,1.90
2019-06-10T00:23:38.220Z,2.03
2019-06-10T00:25:14.958Z,2.10
2019-06-10T00:26:52.347Z,2.40
2019-06-10T00:28:30.984Z,2.10
2019-06-10T00:30:10.064Z,2.33
2019-06-10T00:31:47.427Z,2.27
2019-06-10T00:33:24.590Z,2.73
2019-06-10T00:35:03.161Z,2.20
2019-06-10T00:36:41.347Z,2.20
2019-06-10T00:38:17.987Z,2.20
2019-06-10T00:39:55.415Z,2.70
2019-06-10T00:41:31.934Z,2.23
2019-06-10T00:43:12.984Z,2.20
2019-06-10T00:44:47.445Z,2.23
2019-06-10T00:46:24.829Z,2.27
2019-06-10T00:48:13.488Z,2.60
2019-06-10T00:49:41.057Z,2.20
2019-06-10T00:51:17.651Z,2.37
2019-06-10T00:52:54.991Z,1.97
2019-06-10T00:54:31.728Z,2.20
2019-06-10T00:56:12.543Z,2.23
2019-06-10T00:57:47.375Z,2.50
2019-06-10T00:59:24.534Z,2.37
2019-06-10T01:01:04.253Z,2.40
2019-06-10T01:02:41.738Z,2.40
2019-06-10T01:04:18.486Z,2.70
2019-06-10T01:05:55.776Z,2.13
2019-06-10T01:07:32.321Z,2.30
2019-06-10T01:09:13.194Z,2.10
2019-06-10T01:10:51.978Z,2.10
2019-06-10T01:12:28.475Z,2.47
2019-06-10T01:14:05.476Z,2.80
2019-06-10T01:15:43.355Z,2.60
2019-06-10T01:17:21.345Z,2.53
2019-06-10T01:19:01.279Z,4.10
2019-06-10T01:20:37.181Z,2.60
2019-06-10T01:22:15.906Z,2.90
2019-06-10T01:23:52.716Z,3.93
2019-06-10T01:25:31.106Z,3.30
2019-06-10T01:27:07.747Z,3.30
2019-06-10T01:28:45.159Z,2.60
2019-06-10T01:30:26.371Z,2.60
2019-06-10T01:32:01.744Z,2.60
2019-06-10T01:33:38.455Z,2.50
2019-06-10T01:35:17.416Z,2.70
2019-06-10T01:36:53.983Z,2.77
2019-06-10T01:38:31.755Z,3.60
2019-06-10T01:40:12.899Z,3.37
2019-06-10T01:41:47.949Z,3.33
2019-06-10T01:43:24.446Z,2.90
2019-06-10T01:45:01.800Z,3.43
2019-06-10T01:46:40.914Z,3.10
2019-06-10T01:48:17.928Z,3.37
2019-06-10T01:49:54.342Z,2.50
2019-06-10T01:51:31.820Z,3.03
2019-06-10T01:53:31.194Z,3.37
2019-06-10T01:55:13.517Z,2.37
2019-06-10T01:56:51.081Z,2.63
2019-06-10T01:58:27.799Z,2.83
2019-06-10T02:00:10.974Z,2.70
2019-06-10T02:01:49.051Z,2.20
2019-06-10T02:03:26.331Z,2.47
2019-06-10T02:05:02.987Z,2.80
2019-06-10T02:06:40.644Z,2.80
2019-06-10T02:08:17.839Z,2.60
2019-06-10T02:09:56.221Z,3.07
2019-06-10T02:11:33.053Z,2.87
2019-06-10T02:13:12.084Z,2.63
2019-06-10T02:14:50.936Z,2.70
2019-06-10T02:16:27.338Z,2.80
2019-06-10T02:18:04.766Z,2.50
2019-06-10T02:19:41.521Z,4.07
2019-06-10T02:21:22.150Z,2.80
2019-06-10T02:22:57.019Z,2.70
2019-06-10T02:24:34.266Z,2.83
2019-06-10T02:26:11.844Z,2.73
2019-06-10T02:27:50.734Z,2.60
2019-06-10T02:29:27.425Z,2.87
2019-06-10T02:31:04.748Z,2.63
2019-06-10T02:32:42.760Z,3.30
2019-06-10T02:34:26.875Z,2.73
2019-06-10T02:35:58.830Z,2.60
2019-06-10T02:37:38.107Z,2.80
2019-06-10T02:39:20.152Z,2.47
2019-06-10T02:40:54.007Z,2.53
2019-06-10T02:42:35.841Z,2.77
2019-06-10T02:44:17.183Z,3.20
2019-06-10T02:45:52.905Z,3.13
2019-06-10T02:47:33.622Z,3.07
2019-06-10T02:49:23.344Z,3.40
2019-06-10T02:50:56.859Z,3.00
2019-06-10T02:52:38.385Z,2.93
2019-06-10T02:54:15.544Z,3.00
2019-06-10T02:55:53.888Z,2.90
2019-06-10T02:57:36.554Z,2.90
2019-06-10T02:59:10.293Z,2.90
2019-06-10T03:00:49.110Z,4.20
2019-06-10T03:02:31.925Z,3.30
2019-06-10T03:04:05.611Z,3.53
2019-06-10T03:05:46.614Z,3.60
2019-06-10T03:07:26.179Z,4.00
2019-06-10T03:09:03.432Z,3.33
2019-06-10T03:10:38.535Z,3.50
2019-06-10T03:12:17.649Z,3.17
2019-06-10T03:13:54.298Z,3.10
2019-06-10T03:15:32.709Z,3.40
2019-06-10T03:17:13.939Z,3.23
2019-06-10T03:18:52.554Z,3.17
2019-06-10T03:20:29.144Z,3.33
2019-06-10T03:22:06.637Z,6.87
2019-06-10T03:23:43.114Z,4.10
2019-06-10T03:25:22.996Z,5.33
2019-06-10T03:26:58.845Z,3.63
2019-06-10T03:28:36.237Z,3.70
2019-06-10T03:30:16.922Z,3.80
2019-06-10T03:31:55.302Z,3.93
2019-06-10T03:33:39.910Z,3.80
2019-06-10T03:35:12.952Z,4.97
2019-06-10T03:36:48.035Z,4.13
2019-06-10T03:38:26.976Z,4.67
2019-06-10T03:40:05.479Z,4.37
2019-06-10T03:41:42.771Z,3.93
2019-06-10T03:43:20.768Z,4.40
2019-06-10T03:44:58.905Z,4.13
2019-06-10T03:46:35.543Z,4.67
2019-06-10T03:48:13.145Z,5.30
2019-06-10T03:49:52.884Z,4.53
2019-06-10T03:51:28.822Z,4.43
2019-06-10T03:53:05.463Z,6.87
2019-06-10T03:54:43.334Z,4.63
2019-06-10T03:56:23.562Z,4.93
2019-06-10T03:57:59.297Z,5.10
2019-06-10T03:59:35.756Z,5.20
2019-06-10T04:01:13.264Z,4.90
2019-06-10T04:02:49.747Z,5.53
2019-06-10T04:04:28.269Z,5.43
2019-06-10T04:06:05.085Z,5.30
2019-06-10T04:07:42.901Z,5.27
2019-06-10T04:09:19.554Z,5.27
2019-06-10T04:10:56.403Z,5.63
2019-06-10T04:12:32.944Z,5.37
2019-06-10T04:14:10.213Z,5.37
2019-06-10T04:15:46.747Z,5.83
2019-06-10T04:17:25.318Z,6.17
2019-06-10T04:19:02.649Z,5.73
2019-06-10T04:20:42.677Z,6.03
2019-06-10T04:22:19.614Z,5.97
2019-06-10T04:23:57.332Z,5.53
2019-06-10T04:25:34.000Z,5.97
2019-06-10T04:27:12.267Z,5.80
2019-06-10T04:28:48.851Z,5.87
2019-06-10T04:30:27.593Z,6.37
2019-06-10T04:32:04.838Z,6.33
2019-06-10T04:33:42.336Z,6.20
2019-06-10T04:35:20.293Z,6.37
2019-06-10T04:36:57.970Z,6.50
2019-06-10T04:38:35.002Z,6.30
2019-06-10T04:40:13.407Z,6.97
2019-06-10T04:41:50.037Z,6.93
2019-06-10T04:43:27.748Z,7.17
2019-06-10T04:45:06.410Z,6.80
2019-06-10T04:46:43.732Z,7.43
2019-06-10T04:48:21.219Z,7.13
2019-06-10T04:49:59.147Z,7.07
2019-06-10T04:51:36.252Z,7.70
2019-06-10T04:53:13.678Z,7.30
2019-06-10T04:54:52.607Z,7.03
2019-06-10T04:56:31.203Z,7.90
2019-06-10T04:58:07.643Z,7.80
2019-06-10T04:59:44.884Z,7.90
2019-06-10T05:01:24.127Z,8.13
2019-06-10T05:03:02.738Z,7.17
2019-06-10T05:04:38.858Z,7.80
2019-06-10T05:06:17.176Z,8.07
2019-06-10T05:07:53.711Z,7.97
2019-06-10T05:09:33.592Z,8.37
2019-06-10T05:11:09.945Z,8.00
2019-06-10T05:12:48.188Z,8.67
2019-06-10T05:14:25.719Z,7.87
2019-06-10T05:16:05.067Z,8.93
2019-06-10T05:17:43.689Z,8.90
2019-06-10T05:19:23.187Z,8.57
2019-06-10T05:20:58.959Z,9.37
2019-06-10T05:22:36.494Z,11.07
2019-06-10T05:24:13.100Z,9.57
2019-06-10T05:25:52.651Z,9.53
2019-06-10T05:27:30.815Z,9.37
2019-06-10T05:29:08.429Z,9.90
2019-06-10T05:30:44.905Z,10.10
2019-06-10T05:32:23.208Z,10.40
2019-06-10T05:34:02.395Z,10.63
2019-06-10T05:35:39.551Z,11.63
2019-06-10T05:37:16.092Z,11.07
2019-06-10T05:38:53.411Z,11.27
2019-06-10T05:40:29.959Z,10.90
2019-06-10T05:42:07.556Z,11.73
2019-06-10T05:43:44.195Z,11.37
2019-06-10T05:45:24.487Z,12.27
2019-06-10T05:47:00.199Z,11.87
2019-06-10T05:48:37.514Z,12.43
2019-06-10T05:50:14.459Z,12.43
2019-06-10T05:51:52.760Z,14.40
2019-06-10T05:53:33.697Z,12.40
2019-06-10T05:55:09.423Z,17.43
2019-06-10T05:56:45.910Z,16.67
2019-06-10T05:58:24.743Z,15.30
2019-06-10T06:00:10.780Z,12.40
2019-06-10T06:01:43.238Z,12.73
2019-06-10T06:03:19.897Z,13.70
2019-06-10T06:04:57.660Z,13.13
2019-06-10T06:06:35.388Z,13.50
2019-06-10T06:08:12.940Z,12.67
2019-06-10T06:09:49.578Z,14.73
2019-06-10T06:11:27.757Z,13.17
2019-06-10T06:13:04.387Z,13.13
2019-06-10T06:14:42.563Z,13.87
2019-06-10T06:16:19.251Z,13.93
2019-06-10T06:18:09.238Z,15.33
2019-06-10T06:19:37.302Z,14.87
2019-06-10T06:21:25.323Z,15.93
2019-06-10T06:22:52.436Z,15.30
2019-06-10T06:24:29.812Z,15.40
2019-06-10T06:26:05.830Z,16.03
2019-06-10T06:27:43.269Z,15.87
2019-06-10T06:29:22.264Z,15.33
2019-06-10T06:30:59.762Z,14.17
2019-06-10T06:32:37.840Z,13.80
2019-06-10T06:34:15.363Z,13.60
2019-06-10T06:35:52.526Z,14.73
2019-06-10T06:37:35.294Z,16.27
2019-06-10T06:39:09.309Z,14.83
2019-06-10T06:40:47.364Z,14.53
2019-06-10T06:42:23.901Z,14.57
2019-06-10T06:44:02.358Z,14.27
2019-06-10T06:45:39.118Z,14.40
2019-06-10T06:47:16.577Z,13.47
2019-06-10T06:48:53.479Z,14.47
2019-06-10T06:50:34.340Z,17.00
2019-06-10T06:52:09.337Z,14.47
2019-06-10T06:53:51.951Z,14.20
2019-06-10T06:55:25.851Z,13.93
2019-06-10T06:57:03.647Z,15.03
2019-06-10T06:58:43.019Z,15.13
2019-06-10T07:00:38.244Z,14.60
2019-06-10T07:01:58.027Z,14.80
2019-06-10T07:03:38.243Z,15.20
2019-06-10T07:05:14.755Z,13.60
2019-06-10T07:06:55.478Z,15.03
2019-06-10T07:08:36.105Z,15.13
2019-06-10T07:10:13.371Z,15.73
2019-06-10T07:11:52.870Z,15.20
2019-06-10T07:13:33.990Z,15.50
2019-06-10T07:15:12.151Z,14.43
2019-06-10T07:16:49.643Z,14.40
2019-06-10T07:18:26.156Z,13.57
2019-06-10T07:20:03.452Z,13.60
2019-06-10T07:21:58.198Z,14.83
2019-06-10T07:23:19.051Z,14.27
2019-06-10T07:24:55.588Z,15.23
2019-06-10T07:26:36.116Z,14.90
2019-06-10T07:28:12.560Z,15.23
2019-06-10T07:29:52.753Z,16.00
2019-06-10T07:31:29.125Z,15.03
2019-06-10T07:33:06.555Z,14.30
2019-06-10T07:34:46.820Z,15.33
2019-06-10T07:36:23.563Z,15.63
2019-06-10T07:38:02.977Z,14.27
2019-06-10T07:39:41.710Z,16.77
2019-06-10T07:41:18.536Z,15.67
2019-06-10T07:42:57.672Z,16.87
2019-06-10T07:44:34.886Z,14.37
2019-06-10T07:46:13.630Z,16.13
2019-06-10T07:47:52.292Z,16.33
2019-06-10T07:49:32.160Z,15.80
2019-06-10T07:51:08.314Z,15.93
2019-06-10T07:52:46.877Z,16.30
2019-06-10T07:54:23.984Z,15.20
2019-06-10T07:56:03.213Z,16.37
2019-06-10T07:57:39.707Z,15.60
2019-06-10T07:59:17.165Z,16.07
2019-06-10T08:00:54.620Z,15.27
2019-06-10T08:02:34.039Z,16.00
2019-06-10T08:04:12.045Z,16.17
2019-06-10T08:05:52.078Z,16.50
2019-06-10T08:07:27.859Z,15.87
2019-06-10T08:09:06.540Z,15.93
2019-06-10T08:10:46.074Z,16.47
2019-06-10T08:12:23.260Z,16.13
2019-06-10T08:14:04.374Z,16.17
2019-06-10T08:15:39.746Z,16.60
2019-06-10T08:17:16.559Z,15.83
2019-06-10T08:19:20.121Z,16.40
2019-06-10T08:20:47.999Z,15.80
2019-06-10T08:22:33.534Z,16.50
2019-06-10T08:24:04.227Z,15.70
2019-06-10T08:25:45.368Z,15.93
2019-06-10T08:27:22.725Z,15.07
2019-06-10T08:28:59.914Z,15.93
2019-06-10T08:30:37.639Z,16.43
2019-06-10T08:32:15.183Z,17.17
2019-06-10T08:33:53.359Z,14.93
2019-06-10T08:35:39.412Z,16.57
2019-06-10T08:37:09.452Z,14.40
2019-06-10T08:38:48.739Z,15.93
2019-06-10T08:40:25.231Z,16.10
2019-06-10T08:42:03.134Z,14.33
2019-06-10T08:43:41.342Z,16.00
2019-06-10T08:45:19.040Z,16.30
2019-06-10T08:46:55.587Z,16.27
2019-06-10T08:48:33.199Z,16.27
2019-06-10T08:50:09.901Z,17.20
2019-06-10T08:51:50.038Z,16.40
2019-06-10T08:53:25.534Z,15.27
2019-06-10T08:55:03.512Z,16.43
2019-06-10T08:56:42.506Z,17.37
2019-06-10T08:58:19.401Z,15.60
2019-06-10T08:59:56.844Z,17.03
2019-06-10T09:01:34.252Z,16.60
2019-06-10T09:03:12.639Z,15.13
2019-06-10T09:04:53.301Z,16.05
2019-06-10T09:06:28.457Z,16.30
2019-06-10T09:08:08.056Z,15.70
2019-06-10T09:09:47.209Z,15.45
2019-06-10T09:11:24.007Z,17.02
2019-06-10T09:13:02.827Z,14.87
2019-06-10T09:14:41.031Z,15.78
2019-06-10T09:16:19.509Z,16.65
2019-06-10T09:17:57.049Z,18.20
2019-06-10T09:19:33.703Z,14.98
2019-06-10T09:21:12.830Z,15.75
2019-06-10T09:23:08.150Z,14.87
2019-06-10T09:24:28.506Z,16.73
2019-06-10T09:26:05.528Z,15.53
2019-06-10T09:27:46.625Z,16.35
2019-06-10T09:29:22.311Z,17.10
2019-06-10T09:31:03.648Z,16.77
2019-06-10T09:32:39.862Z,16.25
2019-06-10T09:34:18.366Z,18.52
2019-06-10T09:35:55.174Z,16.12
2019-06-10T09:37:32.622Z,15.58
2019-06-10T09:39:09.205Z,15.03
2019-06-10T09:41:00.213Z,18.17
2019-06-10T09:42:33.332Z,15.30
2019-06-10T09:44:12.618Z,16.48
2019-06-10T09:45:51.363Z,17.85
2019-06-10T09:47:28.562Z,14.80
2019-06-10T09:49:07.556Z,15.38
2019-06-10T09:50:50.445Z,17.92
2019-06-10T09:52:24.159Z,15.93
2019-06-10T09:54:05.719Z,14.83
2019-06-10T09:55:41.638Z,15.40
2019-06-10T09:57:18.228Z,15.75
2019-06-10T09:58:55.628Z,15.95
2019-06-10T10:00:57.741Z,15.65
2019-06-10T10:02:33.462Z,15.93
2019-06-10T10:04:12.272Z,15.15
2019-06-10T10:05:59.672Z,14.98
2019-06-10T10:07:28.706Z,14.90
2019-06-10T10:09:08.400Z,14.87
2019-06-10T10:10:49.477Z,15.28
2019-06-10T10:12:24.662Z,15.53
2019-06-10T10:14:06.338Z,14.38
2019-06-10T10:15:41.855Z,14.58
2019-06-10T10:17:18.688Z,15.32
2019-06-10T10:19:00.337Z,15.35
2019-06-10T10:20:34.931Z,14.80
2019-06-10T10:22:14.057Z,15.40
2019-06-10T10:24:04.353Z,15.90
2019-06-10T10:25:33.275Z,15.30
2019-06-10T10:27:11.020Z,15.35
2019-06-10T10:28:51.824Z,13.50
2019-06-10T10:30:28.400Z,14.00
2019-06-10T10:32:08.194Z,15.20
2019-06-10T10:33:44.750Z,14.65
2019-06-10T10:35:24.254Z,15.32
2019-06-10T10:37:02.926Z,14.75
2019-06-10T10:38:40.321Z,14.83
2019-06-10T10:40:17.744Z,15.10
2019-06-10T10:41:57.257Z,14.65
2019-06-10T10:43:37.617Z,15.72
2019-06-10T10:45:14.337Z,14.90
2019-06-10T10:46:53.749Z,15.60
2019-06-10T10:48:33.215Z,15.98
2019-06-10T10:50:13.646Z,14.68
2019-06-10T10:51:49.667Z,13.78
2019-06-10T10:53:26.138Z,14.45
2019-06-10T10:55:06.547Z,15.03
2019-06-10T10:56:43.603Z,14.15
2019-06-10T10:58:22.528Z,14.80
2019-06-10T10:59:59.129Z,14.40
2019-06-10T11:01:37.032Z,13.18
2019-06-10T11:03:13.749Z,13.45
2019-06-10T11:04:55.189Z,14.07
2019-06-10T11:06:32.157Z,14.58
2019-06-10T11:08:13.599Z,14.75
2019-06-10T11:09:50.237Z,14.23
2019-06-10T11:11:30.145Z,14.25
2019-06-10T11:13:10.761Z,14.15
2019-06-10T11:14:49.242Z,14.60
2019-06-10T11:16:25.882Z,15.10
2019-06-10T11:18:04.071Z,14.70
2019-06-10T11:19:40.611Z,14.90
2019-06-10T11:21:18.144Z,14.65
2019-06-10T11:22:54.801Z,14.00
2019-06-10T11:24:37.798Z,13.28
2019-06-10T11:26:12.483Z,13.48
2019-06-10T11:27:50.639Z,13.13
2019-06-10T11:29:28.094Z,13.13
2019-06-10T11:31:06.168Z,12.55
2019-06-10T11:32:43.254Z,12.47
2019-06-10T11:34:20.965Z,12.18
2019-06-10T11:35:59.356Z,12.63
2019-06-10T11:37:36.966Z,13.32
2019-06-10T11:39:13.566Z,13.53
2019-06-10T11:40:57.684Z,13.25
2019-06-10T11:42:33.466Z,12.60
2019-06-10T11:44:10.682Z,12.40
2019-06-10T11:45:52.360Z,12.50
2019-06-10T11:47:26.484Z,13.20
2019-06-10T11:49:04.011Z,12.07
2019-06-10T11:50:42.814Z,12.60
2019-06-10T11:52:19.653Z,13.48
2019-06-10T11:53:58.666Z,13.95
2019-06-10T11:55:35.475Z,11.53
2019-06-10T11:57:13.254Z,13.78
2019-06-10T11:58:50.081Z,12.75
2019-06-10T12:00:28.794Z,12.23
2019-06-10T12:02:06.048Z,12.90
2019-06-10T12:03:43.698Z,12.18
2019-06-10T12:05:23.522Z,12.80
2019-06-10T12:07:02.364Z,12.33
2019-06-10T12:08:39.137Z,12.82
2019-06-10T12:10:17.429Z,14.13
2019-06-10T12:11:58.100Z,13.68
2019-06-10T12:13:34.628Z,14.38
2019-06-10T12:15:12.416Z,12.25
2019-06-10T12:18:27.848Z,12.40
2019-06-10T12:20:13.228Z,13.25
2019-06-10T12:21:55.654Z,11.78
2019-06-10T12:23:28.975Z,12.90
2019-06-10T12:25:30.451Z,12.55
2019-06-10T12:26:47.659Z,12.05
2019-06-10T12:28:24.997Z,12.05
2019-06-10T12:30:04.868Z,11.53
2019-06-10T12:31:42.795Z,11.43
2019-06-10T12:33:24.220Z,11.85
2019-06-10T12:34:59.759Z,11.33
2019-06-10T12:36:36.896Z,12.15
2019-06-10T12:38:14.291Z,12.30
2019-06-10T12:39:54.997Z,12.53
2019-06-10T12:41:30.444Z,11.63
2019-06-10T12:43:07.656Z,10.88
2019-06-10T12:44:45.822Z,12.45
2019-06-10T12:46:23.190Z,12.95
2019-06-10T12:48:06.329Z,12.25
2019-06-10T12:49:42.570Z,11.25
2019-06-10T12:51:19.468Z,12.50
2019-06-10T12:52:56.509Z,12.65
2019-06-10T12:54:35.568Z,11.57
2019-06-10T12:56:15.055Z,11.70
2019-06-10T12:57:52.244Z,11.88
2019-06-10T12:59:29.590Z,13.32
2019-06-10T13:01:08.020Z,12.30
2019-06-10T13:02:45.519Z,12.82
2019-06-10T13:04:23.104Z,11.45
2019-06-10T13:06:07.225Z,12.35
2019-06-10T13:07:43.755Z,11.53
2019-06-10T13:09:23.577Z,10.80
2019-06-10T13:10:59.850Z,12.35
2019-06-10T13:12:37.405Z,12.68
2019-06-10T13:14:14.040Z,12.75
2019-06-10T13:15:53.210Z,13.78
2019-06-10T13:17:29.615Z,12.73
2019-06-10T13:19:08.024Z,13.53
2019-06-10T13:20:45.330Z,13.72
2019-06-10T13:22:23.131Z,14.00
2019-06-10T13:24:02.545Z,13.13
2019-06-10T13:25:53.128Z,13.72
2019-06-10T13:27:17.572Z,13.83
2019-06-10T13:28:54.320Z,13.98
2019-06-10T13:30:34.166Z,14.07
2019-06-10T13:32:10.079Z,13.35
2019-06-10T13:33:46.633Z,13.98
2019-06-10T13:35:24.033Z,13.88
2019-06-10T13:37:03.412Z,14.03
2019-06-10T13:38:39.730Z,13.98
2019-06-10T13:40:18.640Z,12.95
2019-06-10T13:41:56.028Z,15.13
2019-06-10T13:43:34.028Z,13.50
2019-06-10T13:45:12.788Z,14.63
2019-06-10T13:46:49.333Z,14.25
2019-06-10T13:48:27.216Z,14.00
2019-06-10T13:50:08.150Z,14.55
2019-06-10T13:51:45.170Z,13.75
2019-06-10T13:53:21.821Z,14.25
2019-06-10T13:54:59.068Z,13.22
2019-06-10T13:56:46.155Z,14.73
2019-06-10T13:58:14.834Z,14.63
2019-06-10T13:59:52.005Z,14.13
2019-06-10T14:01:29.503Z,13.30
2019-06-10T14:03:11.262Z,14.50
2019-06-10T14:04:45.794Z,14.60
2019-06-10T14:06:37.663Z,13.95
2019-06-10T14:08:05.419Z,14.63
2019-06-10T14:09:40.566Z,14.75
2019-06-10T14:11:19.058Z,13.72
2019-06-10T14:12:55.981Z,14.33
2019-06-10T14:14:33.403Z,14.63
2019-06-10T14:16:12.739Z,13.90
2019-06-10T14:17:49.984Z,14.33
2019-06-10T14:19:26.624Z,13.55
2019-06-10T14:21:07.897Z,14.30
2019-06-10T14:22:43.335Z,14.10
2019-06-10T14:24:22.776Z,13.43
2019-06-10T14:25:59.013Z,14.25
2019-06-10T14:27:36.288Z,13.72
2019-06-10T14:29:15.838Z,15.63
2019-06-10T14:30:53.840Z,15.35
2019-06-10T14:32:30.229Z,14.50
2019-06-10T14:34:09.651Z,14.95
2019-06-10T14:35:46.168Z,15.38
2019-06-10T14:37:35.108Z,13.78
2019-06-10T14:39:02.081Z,14.68
2019-06-10T14:40:39.514Z,14.53
2019-06-10T14:42:16.317Z,13.30
2019-06-10T14:43:53.775Z,13.80
2019-06-10T14:45:32.620Z,15.35
2019-06-10T14:47:13.548Z,14.70
2019-06-10T14:48:49.279Z,14.95
2019-06-10T14:50:26.807Z,14.35
2019-06-10T14:52:04.858Z,14.25
2019-06-10T14:53:42.808Z,13.78
2019-06-10T14:55:19.512Z,14.70
2019-06-10T14:56:57.466Z,13.22
2019-06-10T14:58:34.020Z,13.32
2019-06-10T15:00:16.269Z,13.03
2019-06-10T15:01:52.112Z,13.93
2019-06-10T15:03:32.679Z,13.70
2019-06-10T15:05:09.277Z,14.18
2019-06-10T15:06:46.629Z,15.53
2019-06-10T15:08:23.336Z,13.80
2019-06-10T15:10:03.305Z,13.88
2019-06-10T15:11:39.813Z,13.15
2019-06-10T15:13:17.230Z,12.40
2019-06-10T15:14:53.879Z,12.60
2019-06-10T15:16:33.454Z,13.05
2019-06-10T15:18:11.452Z,13.83
2019-06-10T15:19:49.312Z,13.20
2019-06-10T15:21:25.977Z,12.65
2019-06-10T15:23:03.332Z,12.90
2019-06-10T15:24:42.608Z,12.70
2019-06-10T15:26:18.793Z,12.53
2019-06-10T15:27:55.342Z,13.05
2019-06-10T15:29:33.191Z,12.82
2019-06-10T15:31:10.910Z,12.80
2019-06-10T15:32:48.747Z,12.15
2019-06-10T15:34:25.399Z,13.65
2019-06-10T15:36:03.130Z,11.22
2019-06-10T15:37:39.715Z,12.88
2019-06-10T15:39:19.630Z,12.35
2019-06-10T15:40:55.302Z,13.15
2019-06-10T15:42:33.280Z,13.03
2019-06-10T15:44:09.875Z,13.22
2019-06-10T15:45:47.303Z,12.18
2019-06-10T15:47:26.242Z,13.88
2019-06-10T15:49:02.796Z,12.28
2019-06-10T15:50:39.501Z,14.00
2019-06-10T15:52:18.770Z,13.50
2019-06-10T15:53:56.039Z,12.47
2019-06-10T15:56:08.457Z,13.53
2019-06-10T15:57:26.497Z,12.68
2019-06-10T15:58:52.160Z,13.53
2019-06-10T16:00:29.529Z,13.93
2019-06-10T16:02:07.704Z,13.22
2019-06-10T16:03:44.809Z,12.00
2019-06-10T16:05:25.214Z,13.22
2019-06-10T16:07:02.538Z,12.78
2019-06-10T16:08:40.164Z,13.60
2019-06-10T16:10:27.634Z,13.15
2019-06-10T16:12:03.014Z,12.85
2019-06-10T16:13:39.663Z,13.05
2019-06-10T16:15:18.193Z,12.95
2019-06-10T16:16:55.271Z,12.95
2019-06-10T16:18:33.082Z,13.25
2019-06-10T16:20:13.057Z,12.15
2019-06-10T16:21:52.498Z,12.80
2019-06-10T16:23:28.739Z,10.93
2019-06-10T16:25:08.066Z,12.73
2019-06-10T16:26:44.674Z,12.25
2019-06-10T16:28:24.539Z,10.80
2019-06-10T16:30:02.601Z,12.40
2019-06-10T16:31:39.435Z,12.88
2019-06-10T16:33:16.545Z,11.93
2019-06-10T16:34:53.908Z,11.30
2019-06-10T16:36:32.081Z,12.15
2019-06-10T16:38:09.515Z,12.10
2019-06-10T16:39:48.583Z,11.90
2019-06-10T16:41:27.903Z,12.95
2019-06-10T16:43:04.257Z,12.58
2019-06-10T16:44:42.470Z,13.00
2019-06-10T16:46:20.085Z,12.50
2019-06-10T16:47:57.882Z,14.90
2019-06-10T16:49:34.631Z,12.58
2019-06-10T16:51:13.462Z,13.13
2019-06-10T16:52:50.132Z,13.08
2019-06-10T16:54:27.689Z,11.80
2019-06-10T16:56:05.250Z,11.60
2019-06-10T16:57:42.713Z,12.50
2019-06-10T16:59:19.843Z,11.68
2019-06-10T17:00:57.178Z,12.05
2019-06-10T17:02:33.782Z,11.35
2019-06-10T17:04:12.454Z,12.90
2019-06-10T17:05:49.386Z,12.93
2019-06-10T17:07:26.977Z,13.05
2019-06-10T17:09:04.685Z,12.07
2019-06-10T17:10:43.618Z,12.80
2019-06-10T17:12:24.848Z,13.33
2019-06-10T17:14:03.084Z,12.18
2019-06-10T17:15:42.230Z,12.33
2019-06-10T17:17:20.490Z,11.77
2019-06-10T17:18:57.112Z,12.17
2019-06-10T17:20:34.520Z,12.82
2019-06-10T17:22:12.639Z,12.77
2019-06-10T17:23:52.475Z,13.37
2019-06-10T17:25:29.694Z,12.40
2019-06-10T17:27:07.233Z,11.87
2019-06-10T17:28:44.737Z,12.10
2019-06-10T17:30:23.929Z,12.00
2019-06-10T17:32:02.826Z,12.83
2019-06-10T17:33:42.452Z,11.50
2019-06-10T17:35:17.909Z,11.40
2019-06-10T17:36:55.305Z,11.67
2019-06-10T17:38:31.859Z,11.80
2019-06-10T17:40:09.966Z,11.67
2019-06-10T17:41:46.511Z,11.00
2019-06-10T17:43:25.060Z,11.00
2019-06-10T17:45:02.518Z,10.43
2019-06-10T17:46:42.460Z,11.23
2019-06-10T17:48:18.230Z,10.73
2019-06-10T17:49:55.458Z,11.90
2019-06-10T17:51:35.539Z,10.50
2019-06-10T17:53:12.690Z,11.10
2019-06-10T17:54:52.202Z,11.53
2019-06-10T17:56:30.789Z,12.33
2019-06-10T17:58:07.927Z,11.97
2019-06-10T17:59:45.320Z,12.10
2019-06-10T18:01:23.600Z,11.37
2019-06-10T18:03:03.655Z,10.87
2019-06-10T18:04:42.039Z,11.53
2019-06-10T18:06:19.119Z,11.40
2019-06-10T18:07:55.647Z,11.50
2019-06-10T18:09:36.677Z,11.33
2019-06-10T18:11:12.768Z,11.33
2019-06-10T18:12:52.626Z,12.00
2019-06-10T18:14:30.141Z,11.20
2019-06-10T18:16:08.339Z,10.70
2019-06-10T18:17:46.070Z,11.27
2019-06-10T18:19:24.317Z,11.70
2019-06-10T18:21:03.370Z,11.70
2019-06-10T18:22:40.581Z,11.13
2019-06-10T18:24:20.578Z,10.80
2019-06-10T18:25:56.082Z,11.53
2019-06-10T18:27:34.076Z,11.80
2019-06-10T18:29:12.989Z,11.87
2019-06-10T18:30:52.811Z,11.17
2019-06-10T18:32:29.791Z,11.67
2019-06-10T18:34:07.163Z,11.30
2019-06-10T18:35:44.569Z,11.80
2019-06-10T18:37:22.782Z,11.87
2019-06-10T18:39:02.839Z,12.40
2019-06-10T18:40:39.867Z,11.63
2019-06-10T18:42:17.854Z,12.70
2019-06-10T18:43:54.489Z,14.30
2019-06-10T18:45:35.085Z,14.77
2019-06-10T18:47:13.253Z,13.20
2019-06-10T18:48:49.553Z,11.67
2019-06-10T18:50:28.265Z,12.77
2019-06-10T18:52:05.757Z,12.80
2019-06-10T18:53:44.020Z,13.60
2019-06-10T18:55:22.668Z,13.97
2019-06-10T18:56:59.297Z,14.20
2019-06-10T18:58:37.836Z,14.67
2019-06-10T19:00:17.343Z,15.10
2019-06-10T19:01:54.675Z,15.27
2019-06-10T19:03:34.696Z,15.57
2019-06-10T19:05:13.396Z,16.07
2019-06-10T19:06:52.754Z,15.77
2019-06-10T19:08:29.060Z,13.83
2019-06-10T19:10:09.794Z,13.83
2019-06-10T19:11:46.403Z,13.47
2019-06-10T19:13:23.819Z,12.87
2019-06-10T19:15:04.633Z,11.47
2019-06-10T19:16:42.974Z,12.33
2019-06-10T19:18:19.801Z,12.53
2019-06-10T19:19:56.571Z,11.50
2019-06-10T19:21:34.223Z,11.60
2019-06-10T19:23:14.465Z,12.10
2019-06-10T19:24:52.804Z,11.30
2019-06-10T19:26:31.009Z,12.13
2019-06-10T19:28:07.836Z,12.00
2019-06-10T19:29:50.736Z,11.67
2019-06-10T19:31:23.399Z,12.67
2019-06-10T19:33:02.515Z,12.57
2019-06-10T19:34:39.452Z,12.47
2019-06-10T19:36:17.607Z,11.87
2019-06-10T19:37:54.264Z,12.40
2019-06-10T19:39:36.380Z,12.03
2019-06-10T19:41:10.014Z,11.77
2019-06-10T19:42:47.462Z,11.60
2019-06-10T19:44:25.537Z,12.60
2019-06-10T19:46:05.829Z,12.07
2019-06-10T19:47:44.093Z,12.37
2019-06-10T19:49:20.388Z,11.77
2019-06-10T19:50:56.933Z,11.83
2019-06-10T19:52:35.231Z,11.17
2019-06-10T19:54:12.744Z,12.13
2019-06-10T19:55:50.418Z,11.37
2019-06-10T19:57:27.129Z,11.80
2019-06-10T19:59:05.740Z,12.03
2019-06-10T20:00:48.772Z,10.87
2019-06-10T20:02:22.484Z,11.37
2019-06-10T20:03:59.241Z,11.13
2019-06-10T20:05:38.068Z,11.30
2019-06-10T20:07:14.751Z,10.90
2019-06-10T20:08:52.342Z,11.60
2019-06-10T20:10:29.121Z,11.13
2019-06-10T20:12:06.594Z,11.10
2019-06-10T20:13:45.374Z,11.00
2019-06-10T20:15:27.876Z,10.90
2019-06-10T20:17:05.394Z,10.23
2019-06-10T20:18:45.284Z,11.13
2019-06-10T20:20:22.651Z,10.80
2019-06-10T20:21:59.278Z,10.73
2019-06-10T20:23:37.378Z,9.97
2019-06-10T20:25:14.672Z,9.97
2019-06-10T20:26:59.275Z,9.77
2019-06-10T20:28:36.623Z,10.20
2019-06-10T20:30:24.299Z,10.50
2019-06-10T20:31:53.369Z,10.37
2019-06-10T20:33:36.211Z,10.90
2019-06-10T20:37:08.380Z,10.80
2019-06-10T20:38:48.888Z,10.63
2019-06-10T20:40:25.662Z,10.57
2019-06-10T20:42:03.028Z,11.17
2019-06-10T20:43:39.677Z,11.00
2019-06-10T20:45:17.463Z,11.50
2019-06-10T20:46:54.698Z,10.33
2019-06-10T20:48:33.294Z,10.70
2019-06-10T20:50:13.099Z,11.47
2019-06-10T20:52:07.149Z,11.13
2019-06-10T20:53:28.861Z,10.70
2019-06-10T20:55:08.608Z,11.23
2019-06-10T20:56:48.355Z,11.47
2019-06-10T20:58:24.347Z,12.10
2019-06-10T21:00:01.109Z,11.87
2019-06-10T21:01:39.105Z,12.33
2019-06-10T21:03:15.811Z,12.27
2019-06-10T21:04:54.306Z,12.40
2019-06-10T21:06:33.041Z,12.47
2019-06-10T21:08:13.326Z,12.50
2019-06-10T21:09:53.402Z,12.83
2019-06-10T21:11:32.236Z,12.17
2019-06-10T21:13:09.359Z,12.53
2019-06-10T21:14:47.243Z,12.40
2019-06-10T21:16:25.222Z,12.73
2019-06-10T21:18:02.679Z,12.23
2019-06-10T21:19:40.403Z,11.93